KSGU/SGU METAR and TAF weather

Enter ICAO airport designator
Station Type Date Time Source
KSGU METAR 2021/02/25 15:56 UTC NOAA

KSGU 251556Z AUTO 16007KT 10SM CLR 03/M11 A3032 RMK AO2 SLP272 T00331111


Station Type Date Time Source
KSGU Decoded METAR 2021/02/25 15:56 UTC NOAA

St George, St George Municipal Airport, UT, United States (KSGU) 37-05N 113-36W
Feb 25, 2021 - 10:56 AM EST / 2021.02.25 1556 UTC
Wind: from the SSE (160 degrees) at 8 MPH (7 KT):0
Visibility: 10 mile(s):0
Sky conditions: clear
Temperature: 37.9 F (3.3 C)
Dew Point: 12.0 F (-11.1 C)
Relative Humidity: 33%
Pressure (altimeter): 30.32 in. Hg (1026 hPa)
ob: KSGU 251556Z AUTO 16007KT 10SM CLR 03/M11 A3032 RMK AO2 SLP272 T00331111
cycle: 16

Station Type Date Time Source
KSGU TAF 2021/02/25 16:36 UTC NOAA

TAF
AMD KSGU 251534Z 2516/2612 18010KT P6SM SCT090
FM252000 21010KT P6SM SKC
FM260100 VRB04KT P6SM SKC

Example: see airport list